createdAt,value
2023-04-08T00:00:27.774Z,4.75
2023-04-08T00:02:56.789Z,4.80
2023-04-08T00:05:25.990Z,5.28
2023-04-08T00:07:55.136Z,4.43
2023-04-08T00:10:25.019Z,5.25
2023-04-08T00:12:54.194Z,5.13
2023-04-08T00:15:23.036Z,5.38
2023-04-08T00:17:54.640Z,6.00
2023-04-08T00:20:25.026Z,5.68
2023-04-08T00:22:53.836Z,6.05
2023-04-08T00:25:25.364Z,5.05
2023-04-08T00:27:55.816Z,5.93
2023-04-08T00:30:27.419Z,4.80
2023-04-08T00:32:59.017Z,4.90
2023-04-08T00:35:30.211Z,5.15
2023-04-08T00:37:59.124Z,5.35
2023-04-08T00:40:27.863Z,4.90
2023-04-08T00:42:58.369Z,5.38
2023-04-08T00:45:27.422Z,5.22
2023-04-08T00:47:58.304Z,4.82
2023-04-08T00:50:27.390Z,5.95
2023-04-08T00:52:56.324Z,5.90
2023-04-08T00:55:26.677Z,4.80
2023-04-08T00:57:55.864Z,5.18
2023-04-08T01:00:25.042Z,4.88
2023-04-08T01:03:03.110Z,5.50
2023-04-08T01:05:38.716Z,5.22
2023-04-08T01:08:09.628Z,5.20
2023-04-08T01:10:41.641Z,5.55
2023-04-08T01:13:13.359Z,6.60
2023-04-08T01:15:45.623Z,5.43
2023-04-08T01:18:17.976Z,5.22
2023-04-08T01:20:47.763Z,5.75
2023-04-08T01:23:24.434Z,5.03
2023-04-08T01:25:55.567Z,6.57
2023-04-08T01:28:31.785Z,6.13
2023-04-08T01:31:03.422Z,5.65
2023-04-08T01:33:35.245Z,5.70
2023-04-08T01:36:05.025Z,5.28
2023-04-08T01:38:35.655Z,5.75
2023-04-08T01:41:06.850Z,7.13
2023-04-08T01:43:37.856Z,6.10
2023-04-08T01:46:07.780Z,6.38
2023-04-08T01:48:37.692Z,5.85
2023-04-08T01:51:07.562Z,6.43
2023-04-08T01:53:38.744Z,5.35
2023-04-08T01:56:13.851Z,6.07
2023-04-08T01:58:48.379Z,5.75
2023-04-08T02:01:21.285Z,6.18
2023-04-08T02:03:56.486Z,5.85
2023-04-08T02:06:29.598Z,5.75
2023-04-08T02:11:29.843Z,5.72
2023-04-08T02:13:59.530Z,6.20
2023-04-08T02:16:35.317Z,6.47
2023-04-08T02:19:16.994Z,6.65
2023-04-08T02:21:50.411Z,6.40
2023-04-08T02:24:22.714Z,7.55
2023-04-08T02:26:53.737Z,7.03
2023-04-08T02:29:23.500Z,6.63
2023-04-08T02:31:56.611Z,6.97
2023-04-08T02:34:26.681Z,7.22
2023-04-08T02:36:56.220Z,7.15
2023-04-08T02:39:33.029Z,7.38
2023-04-08T02:42:03.252Z,7.20
2023-04-08T02:44:35.824Z,7.45
2023-04-08T02:47:06.661Z,7.20
2023-04-08T02:49:38.777Z,7.57
2023-04-08T02:52:07.865Z,7.25
2023-04-08T02:54:36.853Z,8.50
2023-04-08T02:57:07.202Z,7.97
2023-04-08T02:59:37.837Z,8.05
2023-04-08T03:02:06.820Z,8.65
2023-04-08T03:04:36.059Z,8.63
2023-04-08T03:07:06.175Z,9.07
2023-04-08T03:09:36.968Z,6.53
2023-04-08T03:12:07.866Z,7.80
2023-04-08T03:14:36.744Z,6.80
2023-04-08T03:17:05.661Z,7.35
2023-04-08T03:19:34.661Z,6.60
2023-04-08T03:22:03.780Z,7.38
2023-04-08T03:24:32.629Z,8.27
2023-04-08T03:27:01.656Z,7.40
2023-04-08T03:29:33.612Z,7.75
2023-04-08T03:32:02.900Z,8.00
2023-04-08T03:34:31.916Z,10.10
2023-04-08T03:37:00.782Z,8.07
2023-04-08T03:39:29.770Z,8.50
2023-04-08T03:41:59.923Z,8.75
2023-04-08T03:44:37.175Z,8.85
2023-04-08T03:47:07.413Z,8.95
2023-04-08T03:49:36.445Z,10.57
2023-04-08T03:52:05.716Z,9.43
2023-04-08T03:54:34.782Z,8.82
2023-04-08T03:57:03.764Z,9.20
2023-04-08T03:59:34.079Z,9.48
2023-04-08T04:02:03.114Z,9.75
2023-04-08T04:04:33.897Z,9.30
2023-04-08T04:07:02.773Z,9.63
2023-04-08T04:09:31.777Z,10.18
2023-04-08T04:12:01.035Z,9.68
2023-04-08T04:14:31.225Z,9.95
2023-04-08T04:17:02.399Z,11.73
2023-04-08T04:19:33.353Z,9.98
2023-04-08T04:22:02.161Z,10.90
2023-04-08T04:24:33.388Z,10.82
2023-04-08T04:27:02.337Z,10.77
2023-04-08T04:29:33.174Z,11.10
2023-04-08T04:32:02.043Z,10.90
2023-04-08T04:34:31.208Z,11.02
2023-04-08T04:37:02.551Z,10.35
2023-04-08T04:39:31.920Z,10.45
2023-04-08T04:42:01.202Z,12.32
2023-04-08T04:44:30.664Z,11.77
2023-04-08T04:46:59.832Z,11.25
2023-04-08T04:49:28.717Z,10.75
2023-04-08T04:51:58.553Z,11.25
2023-04-08T04:54:29.032Z,11.18
2023-04-08T04:56:58.351Z,11.30
2023-04-08T04:59:27.712Z,12.25
2023-04-08T05:01:57.951Z,11.45
2023-04-08T05:04:27.106Z,10.73
2023-04-08T05:06:56.055Z,10.43
2023-04-08T05:09:25.790Z,11.27
2023-04-08T05:11:55.982Z,11.32
2023-04-08T05:14:25.149Z,10.90
2023-04-08T05:16:53.876Z,10.45
2023-04-08T05:19:22.842Z,10.82
2023-04-08T05:21:51.805Z,10.18
2023-04-08T05:24:20.713Z,11.43
2023-04-08T05:26:52.344Z,12.23
2023-04-08T05:29:23.046Z,10.48
2023-04-08T05:31:52.045Z,10.48
2023-04-08T05:34:23.166Z,9.80
2023-04-08T05:36:52.913Z,10.07
2023-04-08T05:39:21.777Z,10.90
2023-04-08T05:41:50.709Z,10.60
2023-04-08T05:44:21.276Z,10.63
2023-04-08T05:46:51.837Z,11.05
2023-04-08T05:49:21.120Z,11.50
2023-04-08T05:51:50.606Z,10.75
2023-04-08T05:54:19.333Z,10.73
2023-04-08T05:56:48.965Z,11.10
2023-04-08T05:59:17.960Z,11.02
2023-04-08T06:01:46.847Z,10.77
2023-04-08T06:04:17.904Z,10.25
2023-04-08T06:06:46.949Z,10.65
2023-04-08T06:09:15.848Z,10.95
2023-04-08T06:11:44.603Z,10.55
2023-04-08T06:14:13.505Z,13.52
2023-04-08T06:16:42.205Z,10.63
2023-04-08T06:19:11.016Z,11.30
2023-04-08T06:21:43.545Z,10.80
2023-04-08T06:24:12.889Z,10.95
2023-04-08T06:26:42.652Z,10.38
2023-04-08T06:29:11.663Z,10.85
2023-04-08T06:31:40.674Z,11.38
2023-04-08T06:34:09.634Z,10.57
2023-04-08T06:36:38.490Z,11.18
2023-04-08T06:39:08.854Z,11.27
2023-04-08T06:41:37.854Z,11.07
2023-04-08T06:44:21.094Z,11.95
2023-04-08T06:46:49.989Z,10.65
2023-04-08T06:49:18.744Z,11.20
2023-04-08T06:51:47.620Z,11.63
2023-04-08T06:54:17.839Z,11.23
2023-04-08T06:56:46.922Z,12.77
2023-04-08T06:59:15.776Z,10.63
2023-04-08T07:01:44.756Z,11.57
2023-04-08T07:04:13.727Z,13.30
2023-04-08T07:06:42.548Z,11.13
2023-04-08T07:09:12.268Z,10.50
2023-04-08T07:11:44.029Z,11.32
2023-04-08T07:14:14.430Z,10.18
2023-04-08T07:16:43.356Z,11.50
2023-04-08T07:19:12.112Z,10.50
2023-04-08T07:21:41.739Z,9.63
2023-04-08T07:24:10.650Z,10.18
2023-04-08T07:26:40.238Z,8.60
2023-04-08T07:29:10.714Z,7.70
2023-04-08T07:31:39.564Z,8.25
2023-04-08T07:34:08.426Z,8.23
2023-04-08T07:36:37.282Z,9.23
2023-04-08T07:39:06.425Z,7.82
2023-04-08T07:41:35.661Z,8.02
2023-04-08T07:44:04.915Z,9.48
2023-04-08T07:46:39.834Z,9.23
2023-04-08T07:49:08.927Z,8.55
2023-04-08T07:51:38.210Z,9.55
2023-04-08T07:54:07.181Z,8.57
2023-04-08T07:56:36.208Z,8.13
2023-04-08T07:59:06.313Z,8.38
2023-04-08T08:01:36.214Z,9.00
2023-04-08T08:04:06.842Z,9.70
2023-04-08T08:06:36.078Z,9.82
2023-04-08T08:09:05.337Z,11.68
2023-04-08T08:11:34.222Z,9.25
2023-04-08T08:14:04.699Z,9.57
2023-04-08T08:16:34.083Z,9.60
2023-04-08T08:19:04.549Z,9.07
2023-04-08T08:21:37.313Z,9.35
2023-04-08T08:24:06.666Z,9.13
2023-04-08T08:26:37.229Z,9.25
2023-04-08T08:29:08.644Z,8.27
2023-04-08T08:31:38.022Z,8.15
2023-04-08T08:34:07.231Z,9.70
2023-04-08T08:36:39.859Z,20.58
2023-04-08T08:39:08.862Z,7.57
2023-04-08T08:41:37.967Z,6.32
2023-04-08T08:44:08.480Z,7.55
2023-04-08T08:46:37.632Z,7.43
2023-04-08T08:49:10.794Z,8.25
2023-04-08T08:51:42.781Z,7.93
2023-04-08T08:54:14.002Z,8.98
2023-04-08T08:56:43.405Z,8.48
2023-04-08T08:59:21.784Z,8.35
2023-04-08T09:01:50.875Z,8.02
2023-04-08T09:04:21.217Z,8.00
2023-04-08T09:07:09.266Z,7.07
2023-04-08T09:09:50.568Z,7.75
2023-04-08T09:12:19.551Z,8.80
2023-04-08T09:14:48.814Z,7.45
2023-04-08T09:17:17.961Z,8.93
2023-04-08T09:20:11.429Z,8.00
2023-04-08T09:23:01.963Z,8.88
2023-04-08T09:25:34.187Z,9.45
2023-04-08T09:28:03.741Z,9.70
2023-04-08T09:30:35.292Z,9.48
2023-04-08T09:33:07.358Z,9.30
2023-04-08T09:35:37.319Z,9.35
2023-04-08T09:38:07.531Z,10.57
2023-04-08T09:40:39.549Z,8.25
2023-04-08T09:43:13.116Z,8.35
2023-04-08T09:45:44.075Z,9.52
2023-04-08T09:48:19.231Z,9.35
2023-04-08T09:50:51.938Z,9.55
2023-04-08T09:53:27.837Z,8.20
2023-04-08T09:55:58.287Z,10.23
2023-04-08T09:58:30.535Z,10.10
2023-04-08T10:00:59.808Z,8.95
2023-04-08T10:03:31.221Z,9.65
2023-04-08T10:06:02.296Z,7.55
2023-04-08T10:08:35.975Z,6.03
2023-04-08T10:11:04.876Z,7.40
2023-04-08T10:13:35.634Z,7.45
2023-04-08T10:16:25.966Z,7.72
2023-04-08T10:21:39.714Z,8.60
2023-04-08T10:24:11.754Z,7.53
2023-04-08T10:26:42.474Z,9.93
2023-04-08T10:29:36.638Z,10.75
2023-04-08T10:32:05.698Z,9.32
2023-04-08T10:34:34.756Z,8.50
2023-04-08T10:37:04.044Z,6.75
2023-04-08T10:39:35.309Z,6.32
2023-04-08T10:42:09.583Z,7.38
2023-04-08T10:44:38.514Z,7.50
2023-04-08T10:47:07.552Z,6.97
2023-04-08T10:49:37.102Z,5.90
2023-04-08T10:52:09.198Z,5.75
2023-04-08T10:54:40.443Z,7.05
2023-04-08T10:57:09.733Z,7.35
2023-04-08T10:59:39.895Z,5.63
2023-04-08T11:02:15.228Z,7.43
2023-04-08T11:04:44.790Z,8.23
2023-04-08T11:07:14.449Z,9.90
2023-04-08T11:09:45.080Z,10.23
2023-04-08T11:12:18.113Z,8.93
2023-04-08T11:14:48.517Z,9.38
2023-04-08T11:17:18.390Z,8.15
2023-04-08T11:19:48.121Z,7.15
2023-04-08T11:22:18.293Z,8.27
2023-04-08T11:24:49.049Z,8.25
2023-04-08T11:27:18.109Z,8.93
2023-04-08T11:29:47.584Z,9.75
2023-04-08T11:32:16.584Z,8.57
2023-04-08T11:34:48.135Z,9.40
2023-04-08T11:37:17.491Z,10.32
2023-04-08T11:39:50.869Z,9.20
2023-04-08T11:42:29.887Z,8.85
2023-04-08T11:44:59.107Z,9.50
2023-04-08T11:47:33.561Z,8.57
2023-04-08T11:50:03.019Z,9.18
2023-04-08T11:52:48.502Z,8.15
2023-04-08T11:55:26.427Z,10.93
2023-04-08T11:57:56.703Z,10.30
2023-04-08T12:00:27.957Z,9.90
2023-04-08T12:02:57.137Z,10.00
2023-04-08T12:05:26.173Z,8.52
2023-04-08T12:07:55.141Z,9.48
2023-04-08T12:10:26.634Z,9.00
2023-04-08T12:12:55.930Z,9.85
2023-04-08T12:15:24.781Z,9.88
2023-04-08T12:17:53.813Z,10.75
2023-04-08T12:20:22.806Z,9.70
2023-04-08T12:22:51.564Z,9.90
2023-04-08T12:25:20.525Z,9.63
2023-04-08T12:27:51.334Z,9.23
2023-04-08T12:30:22.772Z,9.43
2023-04-08T12:32:52.897Z,10.10
2023-04-08T12:35:21.962Z,9.43
2023-04-08T12:37:50.885Z,9.70
2023-04-08T12:40:20.597Z,8.85
2023-04-08T12:42:51.226Z,8.45
2023-04-08T12:45:20.095Z,8.68
2023-04-08T12:47:48.945Z,9.05
2023-04-08T12:50:17.957Z,9.10
2023-04-08T12:52:46.816Z,10.02
2023-04-08T12:55:16.381Z,9.52
2023-04-08T12:57:45.378Z,9.10
2023-04-08T13:00:16.715Z,9.25
2023-04-08T13:02:45.679Z,8.80
2023-04-08T13:05:14.584Z,8.32
2023-04-08T13:07:43.942Z,8.32
2023-04-08T13:10:12.744Z,9.52
2023-04-08T13:12:41.845Z,8.88
2023-04-08T13:15:12.054Z,10.05
2023-04-08T13:17:42.416Z,8.27
2023-04-08T13:20:12.035Z,8.68
2023-04-08T13:22:41.540Z,9.45
2023-04-08T13:25:10.692Z,8.25
2023-04-08T13:27:39.545Z,8.70
2023-04-08T13:30:09.523Z,9.63
2023-04-08T13:32:38.291Z,8.25
2023-04-08T13:35:09.847Z,9.68
2023-04-08T13:37:38.975Z,8.60
2023-04-08T13:40:09.012Z,8.35
2023-04-08T13:42:38.083Z,8.80
2023-04-08T13:45:07.851Z,8.18
2023-04-08T13:47:38.016Z,8.70
2023-04-08T13:50:09.759Z,8.40
2023-04-08T13:52:38.782Z,8.63
2023-04-08T13:55:08.836Z,8.35
2023-04-08T13:57:38.015Z,8.10
2023-04-08T14:00:08.127Z,8.73
2023-04-08T14:02:39.002Z,9.30
2023-04-08T14:05:10.070Z,8.55
2023-04-08T14:07:38.942Z,8.82
2023-04-08T14:10:09.047Z,8.57
2023-04-08T14:12:38.261Z,8.68
2023-04-08T14:15:08.301Z,9.32
2023-04-08T14:17:38.016Z,9.85
2023-04-08T14:20:09.751Z,9.00
2023-04-08T14:22:38.605Z,8.80
2023-04-08T14:25:07.676Z,8.68
2023-04-08T14:27:42.109Z,8.07
2023-04-08T14:30:20.152Z,8.27
2023-04-08T14:32:49.156Z,9.27
2023-04-08T14:35:19.873Z,9.65
2023-04-08T14:37:48.794Z,9.63
2023-04-08T14:40:17.635Z,9.93
2023-04-08T14:42:46.531Z,9.85
2023-04-08T14:45:15.539Z,10.30
2023-04-08T14:47:44.584Z,10.32
2023-04-08T14:50:14.125Z,10.07
2023-04-08T14:52:48.531Z,9.38
2023-04-08T14:55:17.989Z,10.00
2023-04-08T14:57:46.894Z,10.38
2023-04-08T15:00:16.413Z,10.20
2023-04-08T15:02:45.233Z,10.25
2023-04-08T15:05:14.122Z,10.55
2023-04-08T15:07:44.457Z,11.20
2023-04-08T15:10:13.420Z,11.68
2023-04-08T15:12:42.422Z,11.35
2023-04-08T15:15:11.847Z,10.68
2023-04-08T15:17:40.716Z,11.80
2023-04-08T15:20:11.116Z,10.93
2023-04-08T15:22:40.013Z,11.23
2023-04-08T15:25:11.235Z,12.48
2023-04-08T15:27:41.098Z,11.70
2023-04-08T15:30:12.532Z,11.40
2023-04-08T15:32:42.841Z,11.70
2023-04-08T15:35:12.270Z,11.77
2023-04-08T15:37:41.409Z,12.60
2023-04-08T15:40:12.376Z,12.55
2023-04-08T15:42:41.336Z,12.25
2023-04-08T15:45:11.193Z,12.18
2023-04-08T15:47:40.125Z,11.75
2023-04-08T15:50:09.892Z,13.10
2023-04-08T15:52:38.900Z,12.25
2023-04-08T15:55:09.125Z,10.63
2023-04-08T15:57:39.522Z,12.35
2023-04-08T16:00:09.855Z,11.18
2023-04-08T16:02:42.328Z,11.90
2023-04-08T16:05:12.497Z,10.75
2023-04-08T16:07:42.295Z,11.98
2023-04-08T16:10:11.592Z,10.75
2023-04-08T16:12:48.110Z,11.00
2023-04-08T16:15:17.761Z,13.82
2023-04-08T16:17:52.592Z,11.90
2023-04-08T16:20:21.911Z,11.70
2023-04-08T16:22:51.345Z,11.80
2023-04-08T16:25:20.721Z,11.18
2023-04-08T16:27:50.928Z,10.70
2023-04-08T16:30:19.967Z,11.02
2023-04-08T16:32:49.598Z,12.15
2023-04-08T16:35:20.551Z,12.82
2023-04-08T16:37:49.848Z,10.75
2023-04-08T16:40:18.993Z,10.35
2023-04-08T16:42:48.172Z,11.85
2023-04-08T16:45:18.791Z,10.70
2023-04-08T16:47:47.827Z,10.02
2023-04-08T16:50:16.864Z,10.60
2023-04-08T16:52:49.569Z,10.77
2023-04-08T16:55:18.876Z,10.13
2023-04-08T16:57:47.939Z,10.13
2023-04-08T17:00:20.989Z,11.27
2023-04-08T17:02:50.509Z,11.50
2023-04-08T17:05:19.900Z,11.18
2023-04-08T17:07:49.148Z,11.88
2023-04-08T17:10:18.972Z,12.82
2023-04-08T17:12:52.733Z,12.57
2023-04-08T17:15:23.553Z,12.20
2023-04-08T17:17:52.392Z,13.60
2023-04-08T17:20:24.148Z,12.70
2023-04-08T17:22:53.224Z,11.82
2023-04-08T17:25:22.570Z,12.13
2023-04-08T17:27:51.753Z,12.15
2023-04-08T17:30:22.349Z,10.73
2023-04-08T17:32:51.489Z,11.63
2023-04-08T17:35:20.451Z,11.25
2023-04-08T17:37:50.359Z,11.20
2023-04-08T17:40:19.456Z,10.98
2023-04-08T17:42:48.458Z,11.43
2023-04-08T17:45:17.778Z,10.73
2023-04-08T17:47:48.495Z,11.57
2023-04-08T17:50:17.716Z,12.88
2023-04-08T17:52:47.995Z,13.15
2023-04-08T17:55:17.228Z,10.82
2023-04-08T17:57:47.090Z,11.93
2023-04-08T18:00:16.679Z,10.80
2023-04-08T18:02:47.700Z,10.00
2023-04-08T18:05:20.385Z,12.90
2023-04-08T18:07:49.370Z,10.13
2023-04-08T18:10:18.568Z,10.55
2023-04-08T18:12:52.547Z,11.50
2023-04-08T18:15:26.866Z,12.35
2023-04-08T18:17:56.505Z,10.13
2023-04-08T18:20:26.943Z,11.30
2023-04-08T18:22:56.992Z,16.00
2023-04-08T18:25:25.911Z,20.55
2023-04-08T18:27:54.952Z,17.83
2023-04-08T18:30:23.780Z,14.48
2023-04-08T18:32:52.949Z,11.85
2023-04-08T18:35:22.167Z,9.95
2023-04-08T18:37:52.613Z,11.43
2023-04-08T18:40:21.834Z,15.32
2023-04-08T18:42:50.738Z,27.23
2023-04-08T18:45:20.027Z,14.13
2023-04-08T18:47:48.819Z,15.50
2023-04-08T18:50:18.192Z,18.98
2023-04-08T18:52:47.205Z,17.73
2023-04-08T18:55:17.852Z,20.98
2023-04-08T18:57:46.996Z,21.85
2023-04-08T19:00:16.120Z,22.23
2023-04-08T19:02:45.146Z,24.98
2023-04-08T19:05:14.994Z,17.42
2023-04-08T19:07:43.862Z,13.93
2023-04-08T19:10:12.724Z,21.67
2023-04-08T19:12:43.548Z,19.23
2023-04-08T19:15:12.604Z,17.85
2023-04-08T19:17:42.859Z,12.05
2023-04-08T19:20:12.920Z,15.68
2023-04-08T19:22:42.115Z,15.00
2023-04-08T19:25:11.136Z,14.05
2023-04-08T19:27:40.097Z,15.93
2023-04-08T19:30:10.861Z,16.55
2023-04-08T19:32:39.975Z,19.63
2023-04-08T19:35:12.399Z,16.73
2023-04-08T19:37:41.664Z,14.77
2023-04-08T19:40:11.618Z,14.32
2023-04-08T19:42:40.617Z,13.88
2023-04-08T19:45:12.126Z,11.07
2023-04-08T19:47:43.337Z,11.10
2023-04-08T19:50:13.159Z,12.63
2023-04-08T19:52:42.370Z,10.95
2023-04-08T19:55:11.890Z,12.63
2023-04-08T19:57:41.293Z,12.80
2023-04-08T20:00:14.228Z,13.02
2023-04-08T20:02:43.474Z,13.30
2023-04-08T20:05:15.031Z,15.52
2023-04-08T20:07:43.988Z,13.57
2023-04-08T20:10:13.413Z,12.23
2023-04-08T20:12:42.532Z,12.00
2023-04-08T20:15:23.772Z,14.38
2023-04-08T20:17:54.319Z,12.40
2023-04-08T20:20:24.093Z,13.02
2023-04-08T20:22:53.211Z,13.23
2023-04-08T20:25:22.809Z,12.55
2023-04-08T20:27:52.326Z,12.05
2023-04-08T20:30:22.840Z,13.02
2023-04-08T20:32:52.269Z,12.93
2023-04-08T20:35:22.187Z,12.02
2023-04-08T20:37:51.269Z,12.63
2023-04-08T20:40:20.404Z,13.95
2023-04-08T20:42:49.527Z,13.05
2023-04-08T20:45:18.526Z,12.77
2023-04-08T20:47:52.551Z,13.25
2023-04-08T20:50:21.616Z,14.20
2023-04-08T20:52:50.548Z,13.98
2023-04-08T20:55:19.483Z,13.70
2023-04-08T20:57:48.633Z,12.68
2023-04-08T21:00:18.313Z,13.85
2023-04-08T21:02:50.487Z,15.23
2023-04-08T21:05:19.806Z,13.48
2023-04-08T21:07:48.640Z,14.30
2023-04-08T21:10:17.700Z,14.20
2023-04-08T21:12:46.761Z,14.05
2023-04-08T21:15:15.796Z,13.95
2023-04-08T21:17:49.043Z,14.20
2023-04-08T21:20:18.115Z,13.82
2023-04-08T21:22:47.485Z,15.15
2023-04-08T21:25:16.697Z,15.50
2023-04-08T21:27:45.582Z,13.82
2023-04-08T21:30:16.876Z,15.25
2023-04-08T21:32:45.828Z,14.55
2023-04-08T21:35:16.687Z,14.32
2023-04-08T21:37:45.688Z,14.48
2023-04-08T21:40:14.954Z,13.75
2023-04-08T21:42:43.735Z,13.82
2023-04-08T21:45:13.283Z,13.73
2023-04-08T21:47:42.305Z,14.90
2023-04-08T21:50:11.524Z,15.25
2023-04-08T21:52:43.568Z,13.93
2023-04-08T21:55:12.990Z,14.07
2023-04-08T21:57:42.748Z,14.02
2023-04-08T22:00:14.404Z,21.65
2023-04-08T22:02:46.001Z,14.23
2023-04-08T22:05:15.266Z,15.10
2023-04-08T22:07:45.458Z,14.77
2023-04-08T22:10:14.372Z,14.55
2023-04-08T22:12:43.219Z,14.35
2023-04-08T22:15:12.808Z,16.25
2023-04-08T22:17:41.778Z,15.48
2023-04-08T22:20:11.929Z,15.55
2023-04-08T22:22:40.909Z,15.15
2023-04-08T22:25:11.998Z,15.70
2023-04-08T22:27:41.084Z,16.00
2023-04-08T22:30:11.264Z,16.10
2023-04-08T22:32:40.219Z,15.73
2023-04-08T22:35:10.689Z,16.92
2023-04-08T22:37:41.546Z,15.32
2023-04-08T22:40:12.691Z,15.38
2023-04-08T22:42:44.717Z,16.10
2023-04-08T22:45:13.746Z,14.60
2023-04-08T22:47:42.607Z,15.13
2023-04-08T22:50:11.989Z,14.63
2023-04-08T22:52:41.550Z,14.57
2023-04-08T22:55:14.267Z,15.50
2023-04-08T22:57:43.086Z,16.77
2023-04-08T23:00:12.988Z,16.50
2023-04-08T23:02:42.146Z,14.63
2023-04-08T23:05:11.642Z,16.45
2023-04-08T23:07:40.834Z,16.33
2023-04-08T23:10:12.062Z,14.48
2023-04-08T23:12:41.707Z,16.67
2023-04-08T23:15:11.249Z,16.33
2023-04-08T23:17:40.149Z,14.63
2023-04-08T23:20:10.161Z,15.65
2023-04-08T23:22:42.284Z,16.27
2023-04-08T23:25:13.065Z,15.57
2023-04-08T23:27:42.908Z,14.93
2023-04-08T23:30:12.336Z,16.42
2023-04-08T23:32:41.293Z,15.07
2023-04-08T23:35:11.199Z,16.23
2023-04-08T23:37:40.088Z,15.40
2023-04-08T23:40:10.561Z,16.42
2023-04-08T23:42:40.895Z,16.38
2023-04-08T23:45:10.788Z,17.15
2023-04-08T23:47:40.059Z,17.23
2023-04-08T23:50:10.346Z,16.60
2023-04-08T23:52:39.250Z,17.33
2023-04-08T23:55:08.701Z,25.23
2023-04-08T23:57:37.572Z,17.75
